Time;durP1;ratioP1;P1;durP2;ratioP2;P2;SDS_P1;SDS_P2;PMS_P1;PMS_P2;Temp;Humidity;BMP_temperature;BMP_pressure;BME280_temperature;BME280_humidity;BME280_pressure;Samples;Min_cycle;Max_cycle;Signal;HPM_P1;HPM_P2
2020/12/06 00:02:12;;;;;;;27.65;20.92;;;5.50;1.00;;;;;;4999976;28;20703;-75
2020/12/06 00:04:38;;;;;;;29.30;23.00;;;5.50;1.00;;;;;;5023682;28;21173;-75
2020/12/06 00:07:04;;;;;;;31.08;24.88;;;5.40;1.00;;;;;;5007080;28;20742;-76
2020/12/06 00:09:30;;;;;;;28.73;22.52;;;5.40;1.00;;;;;;5007107;28;21172;-76
2020/12/06 00:11:57;;;;;;;29.88;23.95;;;5.40;1.00;;;;;;5020906;28;20732;-75
2020/12/06 00:14:25;;;;;;;30.25;23.65;;;5.40;1.00;;;;;;5010096;28;20218;-75
2020/12/06 00:16:51;;;;;;;28.50;25.27;;;5.40;1.00;;;;;;5019149;28;20281;-75
2020/12/06 00:19:17;;;;;;;36.90;26.27;;;5.30;1.00;;;;;;5004677;28;20352;-76
2020/12/06 00:21:45;;;;;;;33.90;26.77;;;5.30;1.00;;;;;;5020110;28;20309;-75
2020/12/06 00:24:11;;;;;;;30.15;25.45;;;5.20;1.00;;;;;;5009300;28;20223;-75
2020/12/06 00:26:37;;;;;;;32.72;26.85;;;5.10;1.00;;;;;;5018865;28;20706;-75
2020/12/06 00:29:04;;;;;;;33.03;25.77;;;5.00;1.00;;;;;;5008834;28;21182;-75
2020/12/06 00:31:31;;;;;;;32.15;25.83;;;5.00;1.00;;;;;;5028741;28;20238;-75
2020/12/06 00:33:57;;;;;;;29.60;24.40;;;4.90;1.00;;;;;;5005809;28;20936;-75
2020/12/06 00:36:24;;;;;;;33.75;26.88;;;4.90;1.00;;;;;;5011777;28;20214;-75
2020/12/06 00:38:51;;;;;;;33.40;27.92;;;4.80;1.00;;;;;;4997192;28;20226;-75
2020/12/06 00:41:19;;;;;;;35.38;27.13;;;4.80;1.00;;;;;;5026802;28;20740;-74
2020/12/06 00:43:45;;;;;;;33.33;27.17;;;4.80;1.00;;;;;;5013741;28;20233;-74
2020/12/06 00:46:12;;;;;;;33.22;27.40;;;4.80;1.00;;;;;;5028083;28;20222;-75
2020/12/06 00:48:39;;;;;;;36.38;28.75;;;4.80;1.00;;;;;;5022406;28;20226;-74
2020/12/06 00:51:05;;;;;;;40.92;28.88;;;4.80;1.00;;;;;;5002914;28;21183;-74
2020/12/06 00:53:31;;;;;;;37.78;27.58;;;4.80;1.00;;;;;;5028762;28;20226;-74
2020/12/06 00:55:58;;;;;;;34.25;28.85;;;4.80;1.00;;;;;;5008020;28;20233;-73
2020/12/06 00:58:26;;;;;;;33.40;28.48;;;4.80;1.00;;;;;;5023989;28;20304;-74
2020/12/06 01:00:52;;;;;;;38.47;29.52;;;4.80;1.00;;;;;;4997720;28;20232;-73
2020/12/06 01:03:18;;;;;;;40.25;31.35;;;4.80;1.00;;;;;;5028264;28;20222;-73
2020/12/06 01:05:45;;;;;;;36.95;30.13;;;4.70;1.00;;;;;;5009030;28;20309;-74
2020/12/06 01:08:11;;;;;;;38.78;29.55;;;4.80;1.00;;;;;;5025051;28;20294;-74
2020/12/06 01:10:37;;;;;;;46.15;33.53;;;4.80;1.00;;;;;;4986263;28;20242;-74
2020/12/06 01:13:04;;;;;;;40.55;33.22;;;4.80;1.00;;;;;;5028454;28;20978;-73
2020/12/06 01:15:30;;;;;;;40.53;33.17;;;4.80;1.00;;;;;;5006521;28;20214;-75
2020/12/06 01:17:56;;;;;;;39.60;30.73;;;4.90;1.00;;;;;;5019471;28;20290;-74
2020/12/06 01:20:22;;;;;;;42.70;32.97;;;5.00;1.00;;;;;;4998636;28;20230;-74
2020/12/06 01:22:49;;;;;;;40.70;31.45;;;4.90;1.00;;;;;;5018124;28;20218;-74
2020/12/06 01:25:16;;;;;;;42.25;34.42;;;4.90;1.00;;;;;;5018328;28;20244;-74
2020/12/06 01:27:42;;;;;;;41.60;32.22;;;4.90;1.00;;;;;;5023383;28;20430;-74
2020/12/06 01:30:08;;;;;;;42.17;32.13;;;4.90;1.00;;;;;;5035344;28;20222;-74
2020/12/06 01:32:34;;;;;;;46.50;34.63;;;4.80;1.00;;;;;;4991699;28;20971;-73
2020/12/06 01:35:01;;;;;;;40.55;31.80;;;4.80;1.00;;;;;;5021939;28;20222;-73
2020/12/06 01:37:28;;;;;;;45.05;33.50;;;4.80;1.00;;;;;;5012315;28;20238;-73
2020/12/06 01:39:55;;;;;;;41.10;32.50;;;4.80;1.00;;;;;;5024308;28;20230;-74
2020/12/06 01:42:21;;;;;;;43.67;35.53;;;4.80;1.00;;;;;;4991669;28;20230;-74
2020/12/06 01:44:48;;;;;;;43.80;32.22;;;4.80;1.00;;;;;;5012220;28;20249;-74
2020/12/06 01:47:14;;;;;;;42.65;33.58;;;4.80;1.00;;;;;;4990809;28;20754;-72
2020/12/06 01:49:41;;;;;;;46.70;34.28;;;4.80;1.00;;;;;;5030708;28;20303;-72
2020/12/06 01:52:08;;;;;;;46.33;34.85;;;4.80;1.00;;;;;;5009659;28;22161;-73
2020/12/06 01:54:35;;;;;;;47.47;35.30;;;4.80;1.00;;;;;;5031307;28;20320;-73
2020/12/06 01:57:03;;;;;;;46.28;33.63;;;4.80;1.00;;;;;;5015729;28;20230;-74
2020/12/06 01:59:29;;;;;;;42.90;34.45;;;4.80;1.00;;;;;;5044486;28;20249;-74
2020/12/06 02:01:58;;;;;;;43.33;33.38;;;4.80;1.00;;;;;;5019599;28;20281;-74
2020/12/06 02:04:25;;;;;;;38.75;33.15;;;4.80;1.00;;;;;;5045556;28;20277;-74
2020/12/06 02:06:53;;;;;;;48.67;34.17;;;4.80;1.00;;;;;;5047063;28;20234;-75
2020/12/06 02:09:19;;;;;;;46.53;32.83;;;4.70;1.00;;;;;;5036741;28;20250;-74
2020/12/06 02:11:45;;;;;;;45.15;35.45;;;4.70;1.00;;;;;;5034051;28;20238;-74
2020/12/06 02:14:13;;;;;;;44.75;33.70;;;4.60;1.00;;;;;;5008733;28;20310;-74
2020/12/06 02:16:39;;;;;;;43.53;34.90;;;4.60;1.00;;;;;;5034832;28;21178;-74
2020/12/06 02:19:06;;;;;;;42.90;34.00;;;4.60;1.00;;;;;;5006868;28;20228;-74
2020/12/06 02:21:35;;;;;;;45.10;34.17;;;4.60;1.00;;;;;;5036230;28;20725;-74
2020/12/06 02:24:02;;;;;;;43.72;33.15;;;4.60;1.00;;;;;;5007219;28;20285;-74
2020/12/06 02:26:28;;;;;;;44.90;32.92;;;4.60;1.00;;;;;;5034845;28;20233;-74
2020/12/06 02:28:54;;;;;;;45.88;34.28;;;4.60;1.00;;;;;;5019365;28;20303;-73
2020/12/06 02:31:20;;;;;;;42.78;35.10;;;4.60;1.00;;;;;;5006019;28;20242;-74
2020/12/06 02:33:47;;;;;;;47.08;36.42;;;4.60;1.00;;;;;;5012797;28;20210;-74
2020/12/06 02:36:13;;;;;;;43.92;31.52;;;4.60;1.00;;;;;;5025885;28;20333;-73
2020/12/06 02:38:40;;;;;;;42.00;32.65;;;4.60;1.00;;;;;;5010592;28;20305;-73
2020/12/06 02:41:06;;;;;;;41.72;31.00;;;4.60;1.00;;;;;;5029628;28;20282;-73
2020/12/06 02:43:32;;;;;;;44.03;32.83;;;4.60;1.00;;;;;;5009378;28;20244;-74
2020/12/06 02:45:59;;;;;;;44.28;32.58;;;4.60;1.00;;;;;;5027373;28;20313;-74
2020/12/06 02:48:25;;;;;;;46.25;33.00;;;4.60;1.00;;;;;;5024422;28;20226;-73
2020/12/06 02:50:51;;;;;;;43.08;32.50;;;4.50;1.00;;;;;;5008168;28;20268;-73
2020/12/06 02:53:17;;;;;;;43.65;32.58;;;4.50;1.00;;;;;;5011777;28;20261;-73
2020/12/06 02:55:44;;;;;;;41.38;32.45;;;4.50;1.00;;;;;;5005703;28;20842;-73
2020/12/06 02:58:11;;;;;;;42.42;32.70;;;4.50;1.00;;;;;;5022823;28;20214;-73
2020/12/06 03:00:37;;;;;;;44.25;32.55;;;4.50;1.00;;;;;;5012638;28;20317;-72
2020/12/06 03:03:03;;;;;;;42.92;31.50;;;4.60;1.00;;;;;;5027219;28;20755;-73
2020/12/06 03:05:29;;;;;;;40.45;30.48;;;4.60;1.00;;;;;;5005457;28;20221;-73
2020/12/06 03:07:55;;;;;;;37.95;30.30;;;4.50;1.00;;;;;;5028527;28;20729;-73
2020/12/06 03:10:21;;;;;;;39.00;29.70;;;4.50;1.00;;;;;;5007365;28;20226;-72
2020/12/06 03:12:48;;;;;;;37.50;30.55;;;4.60;1.00;;;;;;5028689;28;20246;-73
2020/12/06 03:15:15;;;;;;;45.80;30.35;;;4.50;1.00;;;;;;5004622;28;20218;-72
2020/12/06 03:17:41;;;;;;;37.17;28.27;;;4.60;1.00;;;;;;5029560;28;20225;-74
2020/12/06 03:20:07;;;;;;;36.35;28.25;;;4.50;1.00;;;;;;5005843;28;20218;-73
2020/12/06 03:22:35;;;;;;;38.22;29.65;;;4.50;1.00;;;;;;5024286;28;20225;-74
2020/12/06 03:25:01;;;;;;;43.65;31.17;;;4.50;1.00;;;;;;5001937;28;20228;-73
2020/12/06 03:27:28;;;;;;;38.80;29.33;;;4.50;1.00;;;;;;5019718;28;20254;-73
2020/12/06 03:29:55;;;;;;;39.85;29.02;;;4.50;1.00;;;;;;5031121;28;20233;-73
2020/12/06 03:32:21;;;;;;;39.67;29.90;;;4.50;1.00;;;;;;5006353;28;20229;-73
2020/12/06 03:34:47;;;;;;;39.75;30.63;;;4.50;1.00;;;;;;5023803;28;20640;-72
2020/12/06 03:37:14;;;;;;;44.47;31.00;;;4.50;1.00;;;;;;5006413;28;20290;-73
2020/12/06 03:39:40;;;;;;;32.38;27.05;;;4.50;1.00;;;;;;5023432;28;20226;-72
2020/12/06 03:42:06;;;;;;;38.63;29.15;;;4.50;1.00;;;;;;5006913;28;21103;-71
2020/12/06 03:44:33;;;;;;;39.70;29.38;;;4.60;1.00;;;;;;5005625;28;20235;-71
2020/12/06 03:47:00;;;;;;;34.45;28.85;;;4.60;1.00;;;;;;5009064;28;21468;-73
2020/12/06 03:49:26;;;;;;;37.50;29.42;;;4.70;1.00;;;;;;5017897;28;20225;-72
2020/12/06 03:51:52;;;;;;;37.22;28.58;;;4.70;1.00;;;;;;5009897;28;20241;-71
2020/12/06 03:54:19;;;;;;;35.15;27.85;;;4.80;1.00;;;;;;5021556;28;20252;-73
2020/12/06 03:56:45;;;;;;;32.97;27.75;;;4.80;1.00;;;;;;5006196;28;20226;-72
2020/12/06 03:59:11;;;;;;;31.83;26.90;;;4.80;1.00;;;;;;5026568;28;20728;-72
2020/12/06 04:01:37;;;;;;;33.90;26.27;;;4.80;1.00;;;;;;5005046;28;26886;-72
2020/12/06 04:04:04;;;;;;;37.30;30.55;;;4.90;1.00;;;;;;5023937;28;20427;-72
2020/12/06 04:06:30;;;;;;;34.20;27.65;;;4.90;1.00;;;;;;5018684;28;20222;-74
2020/12/06 04:08:57;;;;;;;34.20;26.35;;;4.90;1.00;;;;;;5027506;28;20309;-72
2020/12/06 04:11:23;;;;;;;32.10;26.77;;;4.90;1.00;;;;;;5026732;28;20298;-75
2020/12/06 04:13:49;;;;;;;33.50;26.08;;;5.00;1.00;;;;;;5015453;28;20245;-73
2020/12/06 04:16:15;;;;;;;34.40;27.00;;;5.00;1.00;;;;;;5026507;28;20234;-72
2020/12/06 04:18:41;;;;;;;34.47;25.90;;;5.00;1.00;;;;;;5015574;28;20236;-72
2020/12/06 04:21:11;;;;;;;32.78;26.38;;;4.90;1.00;;;;;;5021202;28;20245;-72
2020/12/06 04:23:38;;;;;;;37.28;26.33;;;4.90;1.00;;;;;;5004053;28;20971;-71
2020/12/06 04:26:04;;;;;;;31.77;26.08;;;4.90;1.00;;;;;;5019588;28;20296;-72
2020/12/06 04:28:30;;;;;;;32.58;25.92;;;4.90;1.00;;;;;;5007647;28;20217;-72
2020/12/06 04:30:57;;;;;;;32.50;27.60;;;4.90;1.00;;;;;;5014694;28;20724;-73
2020/12/06 04:33:24;;;;;;;33.17;27.13;;;4.80;1.00;;;;;;5007245;28;20233;-73
2020/12/06 04:35:50;;;;;;;30.40;25.75;;;4.80;1.00;;;;;;5024052;28;20229;-72
2020/12/06 04:38:17;;;;;;;33.13;26.90;;;4.80;1.00;;;;;;5007215;28;20222;-73
2020/12/06 04:40:43;;;;;;;31.80;26.23;;;4.80;1.00;;;;;;5024382;28;20225;-73
2020/12/06 04:43:10;;;;;;;36.30;28.13;;;4.80;1.00;;;;;;5003202;28;21069;-72
2020/12/06 04:45:36;;;;;;;37.33;26.70;;;4.80;1.00;;;;;;5031434;28;20217;-74
2020/12/06 04:48:05;;;;;;;31.85;26.17;;;4.70;1.00;;;;;;5024445;28;20237;-73
2020/12/06 04:50:34;;;;;;;31.75;24.92;;;4.70;1.00;;;;;;5014285;28;20378;-70
2020/12/06 04:53:02;;;;;;;34.00;27.10;;;4.70;1.00;;;;;;5017405;28;20393;-72
2020/12/06 04:55:32;;;;;;;33.78;26.95;;;4.80;1.00;;;;;;5004689;28;20305;-72
2020/12/06 04:58:00;;;;;;;34.17;27.38;;;4.80;1.00;;;;;;5024275;28;20234;-71
2020/12/06 05:00:33;;;;;;;33.75;26.70;;;4.80;1.00;;;;;;5006881;28;20252;-72
2020/12/06 05:03:01;;;;;;;35.88;26.63;;;4.80;1.00;;;;;;5035487;28;20225;-72
2020/12/06 05:05:34;;;;;;;32.78;26.73;;;4.80;1.00;;;;;;5015362;28;20266;-71
2020/12/06 05:08:05;;;;;;;35.90;27.50;;;4.80;1.00;;;;;;5042722;28;20222;-72
2020/12/06 05:10:36;;;;;;;30.20;25.95;;;4.80;1.00;;;;;;5009362;28;20305;-72
2020/12/06 05:13:02;;;;;;;31.10;26.63;;;4.80;1.00;;;;;;5027938;28;20973;-72
2020/12/06 05:15:28;;;;;;;35.35;27.30;;;4.90;1.00;;;;;;5009922;28;20754;-72
2020/12/06 05:17:55;;;;;;;33.80;26.27;;;4.90;1.00;;;;;;5029825;28;20594;-71
2020/12/06 05:20:21;;;;;;;31.70;26.30;;;4.90;1.00;;;;;;5007911;28;20222;-72
2020/12/06 05:22:48;;;;;;;32.00;26.35;;;5.00;1.00;;;;;;5024865;28;20214;-71
2020/12/06 05:25:14;;;;;;;33.90;25.63;;;5.00;1.00;;;;;;5002431;28;20274;-72
2020/12/06 05:27:42;;;;;;;34.90;27.70;;;4.90;1.00;;;;;;5025158;28;20218;-72
2020/12/06 05:30:08;;;;;;;32.00;26.73;;;4.90;1.00;;;;;;5004872;28;20230;-72
2020/12/06 05:32:35;;;;;;;35.20;26.02;;;4.90;1.00;;;;;;5022671;28;20670;-70
2020/12/06 05:35:01;;;;;;;31.23;24.92;;;4.90;1.00;;;;;;5010849;28;20270;-71
2020/12/06 05:37:27;;;;;;;34.25;27.48;;;4.90;1.00;;;;;;5040515;28;20879;-73
2020/12/06 05:40:02;;;;;;;31.88;25.83;;;4.90;1.00;;;;;;5039837;28;20235;-73
2020/12/06 05:42:30;;;;;;;34.78;25.73;;;5.00;1.00;;;;;;5016866;28;20225;-72
2020/12/06 05:44:57;;;;;;;34.65;25.80;;;5.00;1.00;;;;;;5030164;28;20332;-73
2020/12/06 05:47:24;;;;;;;31.50;24.45;;;5.00;1.00;;;;;;5004641;28;20987;-74
2020/12/06 05:49:50;;;;;;;34.08;25.25;;;5.00;1.00;;;;;;5031018;28;21214;-73
2020/12/06 05:52:18;;;;;;;32.80;27.40;;;5.00;1.00;;;;;;5000843;28;21140;-72
2020/12/06 05:54:44;;;;;;;30.48;25.60;;;5.00;1.00;;;;;;5029616;28;20224;-72
2020/12/06 05:57:12;;;;;;;31.65;24.80;;;5.00;1.00;;;;;;4983650;28;20284;-73
2020/12/06 05:59:38;;;;;;;35.55;25.90;;;5.00;1.00;;;;;;5022837;28;20229;-73
2020/12/06 06:02:06;;;;;;;33.00;24.77;;;5.10;1.00;;;;;;5004869;28;20226;-73
2020/12/06 06:04:37;;;;;;;31.95;25.27;;;5.10;1.00;;;;;;5024533;28;20328;-72
2020/12/06 06:07:06;;;;;;;31.13;26.50;;;5.10;1.00;;;;;;5005345;28;20230;-73
2020/12/06 06:09:40;;;;;;;33.25;25.67;;;5.10;1.00;;;;;;5026063;28;20249;-72
2020/12/06 06:12:22;;;;;;;32.10;25.90;;;5.10;1.00;;;;;;4999500;28;20328;-72
2020/12/06 06:14:49;;;;;;;31.45;26.45;;;5.10;1.00;;;;;;5025282;28;20296;-72
2020/12/06 06:17:16;;;;;;;34.17;25.75;;;5.10;1.00;;;;;;5005441;28;20707;-71
2020/12/06 06:19:44;;;;;;;58.20;42.90;;;5.10;1.00;;;;;;5027552;28;20226;-71
2020/12/06 06:22:13;;;;;;;57.95;46.30;;;5.10;1.00;;;;;;5007980;28;20230;-71
2020/12/06 06:24:41;;;;;;;47.55;40.35;;;5.10;1.00;;;;;;5013410;28;21037;-73
2020/12/06 06:27:08;;;;;;;39.55;33.47;;;5.10;1.00;;;;;;5006438;28;20230;-73
2020/12/06 06:29:37;;;;;;;31.52;26.90;;;5.10;1.00;;;;;;5027506;28;20249;-73
2020/12/06 06:32:04;;;;;;;30.25;25.70;;;5.20;1.00;;;;;;5026282;28;20234;-71
2020/12/06 06:34:32;;;;;;;32.50;24.73;;;5.30;1.00;;;;;;5012800;28;20225;-72
2020/12/06 06:36:58;;;;;;;32.15;24.75;;;5.30;1.00;;;;;;5018808;28;20223;-71
2020/12/06 06:39:25;;;;;;;32.65;25.52;;;5.30;1.00;;;;;;5012639;28;20222;-72
2020/12/06 06:41:59;;;;;;;36.17;27.13;;;5.30;1.00;;;;;;5020409;28;20233;-72
2020/12/06 06:44:26;;;;;;;30.20;25.05;;;5.30;1.00;;;;;;5007775;28;20230;-73
2020/12/06 06:46:53;;;;;;;29.13;24.20;;;5.30;1.00;;;;;;5025845;28;20764;-73
2020/12/06 06:49:19;;;;;;;28.75;24.75;;;5.30;1.00;;;;;;5005336;28;20242;-72
2020/12/06 06:51:53;;;;;;;27.27;24.42;;;5.30;1.00;;;;;;5006709;28;20365;-72
2020/12/06 06:54:26;;;;;;;27.15;21.88;;;5.40;1.00;;;;;;5008421;28;20237;-71
2020/12/06 06:56:53;;;;;;;26.40;22.45;;;5.40;1.00;;;;;;5039787;28;20218;-71
2020/12/06 06:59:36;;;;;;;28.08;22.15;;;5.40;1.00;;;;;;5010121;28;22977;-73
2020/12/06 07:02:04;;;;;;;29.80;24.15;;;5.50;1.00;;;;;;5024149;28;20312;-72
2020/12/06 07:04:30;;;;;;;26.70;23.33;;;5.50;1.00;;;;;;5008370;28;20221;-72
2020/12/06 07:06:57;;;;;;;29.10;23.40;;;5.50;1.00;;;;;;5032113;28;20304;-73
2020/12/06 07:09:25;;;;;;;28.60;21.95;;;5.50;1.00;;;;;;5010096;28;20236;-72
2020/12/06 07:11:54;;;;;;;30.02;22.73;;;5.60;1.00;;;;;;5026897;28;20249;-71
2020/12/06 07:14:22;;;;;;;25.80;22.73;;;5.60;1.00;;;;;;5009014;28;20223;-71
2020/12/06 07:16:49;;;;;;;26.05;21.40;;;5.60;1.00;;;;;;5026726;28;20941;-73
2020/12/06 07:19:15;;;;;;;31.17;22.92;;;5.60;1.00;;;;;;5011937;28;20301;-71
2020/12/06 07:21:42;;;;;;;25.40;21.60;;;5.60;1.00;;;;;;5021668;28;20218;-73
2020/12/06 07:24:10;;;;;;;30.15;23.25;;;5.60;1.00;;;;;;5020777;28;20222;-73
2020/12/06 07:26:36;;;;;;;30.27;25.10;;;5.70;1.00;;;;;;5012575;28;21214;-73
2020/12/06 07:29:03;;;;;;;25.70;22.30;;;5.80;1.00;;;;;;5026262;28;20443;-73
2020/12/06 07:31:29;;;;;;;24.63;21.85;;;5.80;1.00;;;;;;5007740;28;23252;-73
2020/12/06 07:33:55;;;;;;;30.13;23.20;;;5.90;1.00;;;;;;5028180;28;20232;-73
2020/12/06 07:36:22;;;;;;;25.23;20.85;;;5.90;1.00;;;;;;5009087;28;20228;-72
2020/12/06 07:38:48;;;;;;;24.50;21.13;;;5.90;1.00;;;;;;5024912;28;20218;-72
2020/12/06 07:41:15;;;;;;;26.30;21.35;;;5.90;1.00;;;;;;4991417;28;20293;-73
2020/12/06 07:43:41;;;;;;;24.58;20.58;;;6.00;1.00;;;;;;5024380;28;20304;-73
2020/12/06 07:46:15;;;;;;;24.75;19.27;;;6.00;1.00;;;;;;5012604;28;20305;-74
2020/12/06 07:48:41;;;;;;;23.15;20.52;;;6.10;1.00;;;;;;5016007;28;20228;-73
2020/12/06 07:51:07;;;;;;;22.85;19.73;;;6.20;1.00;;;;;;5016456;28;21129;-72
2020/12/06 07:53:48;;;;;;;24.33;19.60;;;6.20;1.00;;;;;;5021444;28;20236;-74
2020/12/06 07:56:18;;;;;;;23.65;19.88;;;6.30;1.00;;;;;;5009549;28;20225;-74
2020/12/06 07:58:54;;;;;;;24.38;20.33;;;6.40;1.00;;;;;;5024430;28;20250;-71
2020/12/06 08:01:20;;;;;;;22.50;20.08;;;6.40;1.00;;;;;;5003216;28;20308;-73
2020/12/06 08:03:49;;;;;;;23.38;20.60;;;6.50;1.00;;;;;;5028656;28;20282;-74
2020/12/06 08:06:17;;;;;;;25.70;21.00;;;6.60;1.00;;;;;;5010284;28;20222;-74
2020/12/06 08:08:45;;;;;;;23.45;19.75;;;6.70;1.00;;;;;;5031978;28;20309;-73
2020/12/06 08:11:12;;;;;;;20.33;18.15;;;6.80;1.00;;;;;;5004985;28;20234;-72
2020/12/06 08:13:39;;;;;;;20.15;17.85;;;6.90;1.00;;;;;;5029646;28;20222;-73
2020/12/06 08:16:07;;;;;;;21.85;17.80;;;6.90;1.00;;;;;;5025235;28;20971;-73
2020/12/06 08:18:33;;;;;;;19.77;17.48;;;7.00;1.00;;;;;;5015410;28;20288;-74
2020/12/06 08:21:01;;;;;;;25.80;21.33;;;7.10;1.00;;;;;;5023134;28;20326;-73
2020/12/06 08:23:31;;;;;;;23.38;18.80;;;7.10;1.00;;;;;;5007188;28;20222;-73
2020/12/06 08:25:57;;;;;;;24.60;19.23;;;7.20;1.00;;;;;;5023727;28;20218;-74
2020/12/06 08:28:23;;;;;;;23.90;19.83;;;7.30;1.00;;;;;;5008686;28;20249;-73
2020/12/06 08:30:50;;;;;;;25.05;20.55;;;7.30;1.00;;;;;;5026563;28;20253;-73
2020/12/06 08:33:23;;;;;;;21.40;19.13;;;7.40;1.00;;;;;;5007362;28;20422;-74
2020/12/06 08:35:51;;;;;;;19.80;16.25;;;7.50;1.00;;;;;;5031696;28;20222;-74
2020/12/06 08:38:19;;;;;;;18.02;15.13;;;7.50;1.00;;;;;;5012181;28;20226;-73
2020/12/06 08:40:59;;;;;;;22.80;17.38;;;7.50;1.00;;;;;;5027424;28;20226;-73
2020/12/06 08:43:38;;;;;;;18.17;15.95;;;7.50;1.00;;;;;;5013952;28;20218;-72
2020/12/06 08:46:06;;;;;;;26.55;23.52;;;7.60;1.00;;;;;;5033589;28;20218;-74
2020/12/06 08:48:32;;;;;;;19.65;16.58;;;7.60;1.00;;;;;;5008895;28;20723;-74
2020/12/06 08:50:58;;;;;;;19.92;15.85;;;7.70;1.00;;;;;;5022347;28;20232;-73
2020/12/06 08:53:24;;;;;;;18.00;16.10;;;7.80;1.00;;;;;;5010862;28;20236;-73
2020/12/06 08:55:51;;;;;;;19.98;16.60;;;7.80;1.00;;;;;;5025240;28;20286;-74
2020/12/06 08:58:28;;;;;;;18.90;15.07;;;7.90;1.00;;;;;;5008046;28;20225;-75
2020/12/06 09:00:54;;;;;;;20.05;15.73;;;8.00;1.00;;;;;;5026708;28;20744;-74
2020/12/06 09:03:21;;;;;;;19.15;16.17;;;8.00;1.00;;;;;;5009259;28;20257;-73
2020/12/06 09:05:47;;;;;;;20.10;15.68;;;8.10;1.00;;;;;;5025410;28;20221;-74
2020/12/06 09:08:13;;;;;;;17.20;15.38;;;8.20;1.00;;;;;;5019850;28;20244;-75
2020/12/06 09:10:39;;;;;;;19.65;16.35;;;8.30;1.00;;;;;;5015076;28;20265;-73
2020/12/06 09:13:05;;;;;;;21.70;18.45;;;8.30;1.00;;;;;;5024704;28;20238;-73
2020/12/06 09:15:32;;;;;;;19.40;16.52;;;8.40;1.00;;;;;;5005185;28;20296;-73
2020/12/06 09:17:58;;;;;;;16.35;14.65;;;8.50;1.00;;;;;;5033419;28;20255;-74
2020/12/06 09:20:25;;;;;;;19.60;15.55;;;8.50;1.00;;;;;;5007138;28;20936;-74
2020/12/06 09:22:51;;;;;;;16.23;14.63;;;8.50;1.00;;;;;;5020676;28;21223;-74
2020/12/06 09:25:17;;;;;;;19.65;15.93;;;8.50;1.00;;;;;;4998626;28;20309;-74
2020/12/06 09:27:43;;;;;;;16.42;14.60;;;8.50;1.00;;;;;;5029508;28;20233;-74
2020/12/06 09:30:09;;;;;;;17.60;15.70;;;8.50;1.00;;;;;;5006810;28;21087;-74
2020/12/06 09:32:35;;;;;;;18.05;16.08;;;8.50;1.00;;;;;;5030163;28;20240;-74
2020/12/06 09:35:02;;;;;;;22.40;16.52;;;8.50;1.00;;;;;;5011342;28;20222;-74
2020/12/06 09:37:29;;;;;;;16.80;14.90;;;8.60;1.00;;;;;;5024794;28;20334;-75
2020/12/06 09:39:55;;;;;;;16.60;14.35;;;8.70;1.00;;;;;;5008347;28;20246;-75
2020/12/06 09:42:21;;;;;;;18.50;16.48;;;8.80;1.00;;;;;;5031507;28;20708;-75
2020/12/06 09:44:49;;;;;;;18.38;14.85;;;8.90;1.00;;;;;;5016024;28;20223;-74
2020/12/06 09:47:15;;;;;;;18.55;15.75;;;8.80;1.00;;;;;;5025781;28;20222;-74
2020/12/06 09:49:41;;;;;;;15.85;13.98;;;8.90;1.00;;;;;;5030854;28;20226;-74
2020/12/06 09:52:08;;;;;;;18.73;15.40;;;9.10;1.00;;;;;;5001853;28;20338;-73
2020/12/06 09:54:35;;;;;;;15.90;14.30;;;9.30;1.00;;;;;;5024279;28;20241;-72
2020/12/06 09:57:02;;;;;;;16.25;14.75;;;9.40;1.00;;;;;;5016469;28;20254;-73
2020/12/06 09:59:29;;;;;;;15.80;13.80;;;9.60;1.00;;;;;;5024822;28;20323;-73
2020/12/06 10:01:55;;;;;;;17.10;14.38;;;9.60;1.00;;;;;;5012338;28;20218;-73
2020/12/06 10:04:21;;;;;;;16.83;14.77;;;9.60;1.00;;;;;;5028849;28;21051;-74
2020/12/06 10:06:47;;;;;;;16.55;14.85;;;9.70;1.00;;;;;;5012768;28;20226;-73
2020/12/06 10:09:13;;;;;;;15.57;13.57;;;9.70;1.00;;;;;;5024026;28;20317;-75
2020/12/06 10:11:40;;;;;;;16.35;12.35;;;10.00;1.00;;;;;;5013180;28;20233;-75
2020/12/06 10:14:06;;;;;;;16.85;13.60;;;10.30;1.00;;;;;;5027662;28;20269;-76
2020/12/06 10:16:32;;;;;;;15.65;13.48;;;10.60;1.00;;;;;;5015579;28;20220;-74
2020/12/06 10:18:59;;;;;;;14.65;13.25;;;10.70;1.00;;;;;;5030292;28;20226;-75
2020/12/06 10:21:25;;;;;;;16.58;13.65;;;10.90;1.00;;;;;;5020567;28;21325;-75
2020/12/06 10:23:51;;;;;;;14.75;12.45;;;10.90;1.00;;;;;;5041616;28;20273;-74
2020/12/06 10:26:17;;;;;;;13.30;12.00;;;10.90;1.00;;;;;;5031311;28;20907;-74
2020/12/06 10:28:44;;;;;;;14.60;11.77;;;10.90;1.00;;;;;;5028730;28;20254;-74
2020/12/06 10:31:10;;;;;;;14.75;13.20;;;10.90;1.00;;;;;;5031859;28;20242;-75
2020/12/06 10:33:37;;;;;;;14.65;12.98;;;10.90;1.00;;;;;;5008109;28;20243;-74
2020/12/06 10:36:03;;;;;;;14.50;13.00;;;11.10;1.00;;;;;;5024432;28;20302;-74
2020/12/06 10:38:29;;;;;;;14.40;12.90;;;11.30;1.00;;;;;;5011574;28;20224;-75
2020/12/06 10:40:55;;;;;;;14.00;12.57;;;11.50;1.00;;;;;;5028166;28;20474;-74
2020/12/06 10:43:22;;;;;;;13.88;12.07;;;11.60;1.00;;;;;;5014026;28;20479;-76
2020/12/06 10:45:49;;;;;;;14.85;11.73;;;11.60;1.00;;;;;;5026853;28;20232;-74
2020/12/06 10:48:15;;;;;;;13.38;11.98;;;11.40;1.00;;;;;;5016208;28;20222;-75
2020/12/06 10:50:41;;;;;;;14.85;13.20;;;11.40;1.00;;;;;;5030372;28;21001;-75
2020/12/06 10:53:07;;;;;;;16.50;13.00;;;11.60;1.00;;;;;;5009854;28;20255;-75
2020/12/06 10:55:34;;;;;;;14.63;13.10;;;11.80;1.00;;;;;;5026477;28;20268;-74
2020/12/06 10:58:00;;;;;;;14.43;12.00;;;11.80;1.00;;;;;;5013574;28;20446;-74
2020/12/06 11:00:26;;;;;;;12.38;11.18;;;11.90;1.00;;;;;;5033275;28;20435;-75
2020/12/06 11:02:54;;;;;;;13.48;12.07;;;11.80;1.00;;;;;;5007540;28;20227;-75
2020/12/06 11:05:20;;;;;;;14.43;12.98;;;11.60;1.00;;;;;;5036864;28;21570;-76
2020/12/06 11:07:46;;;;;;;14.67;13.17;;;11.60;1.00;;;;;;5028728;28;20230;-75
2020/12/06 11:10:12;;;;;;;12.40;11.20;;;11.60;1.00;;;;;;5009772;28;20453;-74
2020/12/06 11:12:38;;;;;;;14.80;13.02;;;11.60;1.00;;;;;;5026283;28;20479;-74
2020/12/06 11:15:04;;;;;;;16.05;14.45;;;11.50;1.00;;;;;;5004439;28;20258;-75
2020/12/06 11:17:31;;;;;;;15.90;14.30;;;11.70;1.00;;;;;;5013306;28;20234;-74
2020/12/06 11:19:59;;;;;;;14.83;13.23;;;12.00;1.00;;;;;;4998682;28;20485;-73
2020/12/06 11:22:25;;;;;;;18.10;13.10;;;12.20;1.00;;;;;;5024304;28;20456;-74
2020/12/06 11:24:52;;;;;;;13.77;11.73;;;12.30;1.00;;;;;;5008507;28;20446;-73
2020/12/06 11:27:18;;;;;;;15.10;13.50;;;12.40;1.00;;;;;;5028989;28;20454;-73
2020/12/06 11:29:45;;;;;;;12.97;11.40;;;12.40;1.00;;;;;;5002159;28;20553;-74
2020/12/06 11:32:11;;;;;;;14.13;12.73;;;12.30;1.00;;;;;;5024869;28;20616;-73
2020/12/06 11:34:38;;;;;;;14.93;13.33;;;12.20;1.00;;;;;;5005042;28;20456;-75
2020/12/06 11:37:05;;;;;;;14.90;12.30;;;12.10;1.00;;;;;;5023203;28;21380;-75
2020/12/06 11:39:32;;;;;;;13.33;11.73;;;12.00;1.00;;;;;;5008139;28;20447;-74
2020/12/06 11:41:59;;;;;;;14.27;12.80;;;12.00;1.00;;;;;;5022813;28;20460;-74
2020/12/06 11:44:25;;;;;;;13.33;12.03;;;11.90;1.00;;;;;;4983215;28;20454;-72
2020/12/06 11:46:52;;;;;;;11.67;10.47;;;11.90;1.00;;;;;;5026046;28;20649;-74
2020/12/06 11:49:18;;;;;;;11.20;10.00;;;11.90;1.00;;;;;;5024939;28;20470;-73
2020/12/06 11:51:45;;;;;;;12.23;11.03;;;12.00;1.00;;;;;;5008663;28;20946;-74
2020/12/06 11:54:16;;;;;;;12.57;11.33;;;12.00;1.00;;;;;;5029760;28;20429;-73
2020/12/06 11:56:48;;;;;;;12.80;11.40;;;12.10;1.00;;;;;;5012928;28;20500;-74
2020/12/06 11:59:15;;;;;;;13.07;11.45;;;12.00;1.00;;;;;;5024741;28;20446;-74
2020/12/06 12:01:41;;;;;;;13.33;11.97;;;12.10;1.00;;;;;;5011811;28;20218;-74
2020/12/06 12:04:07;;;;;;;15.10;12.60;;;12.10;1.00;;;;;;5027948;28;20424;-74
2020/12/06 12:06:34;;;;;;;14.67;13.20;;;12.10;1.00;;;;;;5012376;28;20497;-74
2020/12/06 12:09:01;;;;;;;13.87;12.37;;;12.10;1.00;;;;;;5034359;28;20524;-74
2020/12/06 12:11:29;;;;;;;14.10;12.33;;;12.00;1.00;;;;;;5014353;28;20484;-74
2020/12/06 12:13:55;;;;;;;12.73;11.40;;;12.10;1.00;;;;;;5036618;28;20432;-74
2020/12/06 12:16:22;;;;;;;12.90;11.60;;;12.20;1.00;;;;;;5010745;28;20503;-74
2020/12/06 12:18:49;;;;;;;12.90;11.53;;;12.20;1.00;;;;;;5029804;28;20489;-74
2020/12/06 12:21:15;;;;;;;13.23;11.83;;;12.20;1.00;;;;;;5004624;28;20466;-74
2020/12/06 12:23:42;;;;;;;14.15;11.57;;;12.40;1.00;;;;;;5021581;28;20443;-74
2020/12/06 12:26:08;;;;;;;13.77;12.13;;;12.40;1.00;;;;;;5008354;28;20310;-75
2020/12/06 12:28:36;;;;;;;12.70;11.40;;;12.40;1.00;;;;;;5030624;28;20562;-74
2020/12/06 12:31:02;;;;;;;14.82;13.20;;;12.30;1.00;;;;;;5028511;28;20563;-74
2020/12/06 12:33:29;;;;;;;14.73;13.00;;;12.30;1.00;;;;;;5006609;28;20222;-75
2020/12/06 12:35:55;;;;;;;12.80;11.30;;;12.30;1.00;;;;;;5023272;28;20445;-74
2020/12/06 12:38:21;;;;;;;13.77;11.83;;;12.40;1.00;;;;;;5008720;28;21204;-73
2020/12/06 12:40:49;;;;;;;15.30;11.97;;;12.40;1.00;;;;;;5023259;28;20734;-74
2020/12/06 12:43:16;;;;;;;15.50;11.50;;;12.60;1.00;;;;;;5004182;28;20441;-74
2020/12/06 12:45:43;;;;;;;13.00;11.60;;;12.80;1.00;;;;;;5026173;28;21714;-74